Accueil
METAR-TAF:

METAR-TAF

Aéroports :

Aérodrome de Samedan-Engadin

Saint-Moritz, Suisse

latitude: 46-32-03N, longitude: 9-53-03E, altitude: 1707 m

Observation

Le bulletin a été fait il y a 28 minutes, à 11:50 UTC
Vent 8 kt de nord/nord-est
Température -7°C
Humidité 38%
Pression 1010 hPa
Visibilité 10 km ou plus
pas de nuages en-dessous de 1500 mètres et pas de cumulonimbus.

METAR: LSZS 181150Z 02008KT CAVOK M07/M19 Q1010 RMK K

Heure: 13:18 (12:18 UTC)

Prévision

Le bulletin a été fait il y a 53 minutes, à 11:25 UTC
Prévision valable du 18 à 12 UTC au 18 à 21 UTC
Vent 8 kt de nord
Visibilité 10 km ou plus
pas de nuages en-dessous de 1500 mètres et pas de cumulonimbus.
Probabilité 40% :
Temporairement
du 18 à 12 UTC au 18 à 15 UTC
Vent 15 kt de nord avec des rafales jusqu'à 25 kt

TAF: LSZS 181125Z 1812/1821 36008KT CAVOK TXM04/1813Z PROB40 TEMPO 1812/1815 36015G25KT

Observations et prévisions météorologiques de plus de 4000 aéroports (messages METAR et TAF).

Les stations disponibles sont représentées par des disques jaunes et rouges sur la carte.

Passer la souris dessus pour voir le nom de la station.

Cliquer dessus pour voir les observations et prévisions météorologiques.

Pour changer de carte: cliquez sur les boutons verts avec une croix noire pour zoomer, sur le bouton vert avec un tiret pour effectuer un zoom arrière, ou sur les flèches vertes pour les cartes adjacentes.


METAR-TAF: